Terminal Aerodrome Forecast
Issued by NWS

Home | Current Version | Previous Version | Text Only | Print | Product List | Glossary On
Versions: 1 2 3 4 5 6 7 8 9 10 11 12 13 14 15 16
755
FTUS44 KTSA 291128
TAFRVS
TAF
KRVS 291128Z 2912/3012 00000KT 4SM BR BKN250
     FM291500 18005KT P6SM SCT040 BKN250
     FM291800 17005KT P6SM VCTS SCT040CB BKN250
     FM300100 00000KT P6SM BKN250=

USA.gov is the U.S. government's official web portal to all federal, state and local government web resources and services.